Time;durP1;ratioP1;P1;durP2;ratioP2;P2;SDS_P1;SDS_P2;PMS_P1;PMS_P2;Temp;Humidity;BMP_temperature;BMP_pressure;BME280_temperature;BME280_humidity;BME280_pressure;Samples;Min_cycle;Max_cycle;Signal;HPM_P1;HPM_P2
2021/01/21 00:01:31;;;;;;;10.48;5.20;;;8.70;96.70;;;;;;4829572;29;20051;-69
2021/01/21 00:03:59;;;;;;;7.18;4.75;;;8.70;96.70;;;;;;4810186;29;20052;-69
2021/01/21 00:06:26;;;;;;;8.20;5.13;;;8.70;96.70;;;;;;4832221;29;20401;-68
2021/01/21 00:08:53;;;;;;;8.20;4.72;;;8.70;96.70;;;;;;4829681;29;20045;-68
2021/01/21 00:11:21;;;;;;;8.75;5.38;;;8.70;96.70;;;;;;4830778;29;20122;-69
2021/01/21 00:13:48;;;;;;;8.65;5.38;;;8.70;96.70;;;;;;4831100;29;20235;-69
2021/01/21 00:16:16;;;;;;;10.48;6.28;;;8.70;96.70;;;;;;4830285;29;20062;-69
2021/01/21 00:18:43;;;;;;;10.48;6.55;;;8.70;96.70;;;;;;4834005;29;20050;-70
2021/01/21 00:21:10;;;;;;;10.23;6.38;;;8.70;96.70;;;;;;4814022;29;20054;-69
2021/01/21 00:23:37;;;;;;;8.52;7.05;;;8.70;96.70;;;;;;4844803;29;20137;-69
2021/01/21 00:26:05;;;;;;;8.82;6.50;;;8.70;96.70;;;;;;4829842;29;20038;-69
2021/01/21 00:28:33;;;;;;;12.75;6.95;;;8.70;96.70;;;;;;4836675;29;20062;-69
2021/01/21 00:31:00;;;;;;;9.77;7.35;;;8.70;96.70;;;;;;4832587;29;20050;-69
2021/01/21 00:33:27;;;;;;;11.43;7.40;;;8.70;96.70;;;;;;4828531;29;20038;-69
2021/01/21 00:35:55;;;;;;;12.95;7.28;;;8.70;96.70;;;;;;4828738;29;20046;-69
2021/01/21 00:38:22;;;;;;;9.55;6.93;;;8.70;96.70;;;;;;4831280;29;20524;-69
2021/01/21 00:40:49;;;;;;;11.48;7.10;;;8.70;96.70;;;;;;4826241;29;20068;-70
2021/01/21 00:43:16;;;;;;;11.93;6.80;;;8.70;96.70;;;;;;4832828;29;20140;-69
2021/01/21 00:45:44;;;;;;;9.02;6.05;;;8.70;96.70;;;;;;4813619;29;20095;-69
2021/01/21 00:48:11;;;;;;;12.27;6.82;;;8.80;96.70;;;;;;4829638;29;20573;-69
2021/01/21 00:50:39;;;;;;;9.82;6.43;;;8.80;96.70;;;;;;4839805;29;20066;-69
2021/01/21 00:53:12;;;;;;;11.75;6.60;;;8.80;96.70;;;;;;4833119;29;20065;-69
2021/01/21 00:55:39;;;;;;;9.50;5.50;;;8.80;96.70;;;;;;4833613;29;20042;-68
2021/01/21 00:58:07;;;;;;;9.90;6.30;;;8.80;96.70;;;;;;4833432;29;20049;-69
2021/01/21 01:00:35;;;;;;;8.23;5.68;;;8.80;96.70;;;;;;4832280;29;20074;-69
2021/01/21 01:03:05;;;;;;;9.18;5.43;;;8.90;96.70;;;;;;4816733;29;20429;-70
2021/01/21 01:05:36;;;;;;;8.63;5.70;;;8.90;96.70;;;;;;4834860;29;20065;-70
2021/01/21 01:08:04;;;;;;;9.18;5.60;;;8.90;96.70;;;;;;4834615;29;20111;-69
2021/01/21 01:10:32;;;;;;;9.45;5.13;;;8.90;96.70;;;;;;4834669;29;20049;-68
2021/01/21 01:13:08;;;;;;;8.50;5.38;;;8.90;96.70;;;;;;4833478;29;20623;-69
2021/01/21 01:15:38;;;;;;;10.20;5.53;;;8.90;96.70;;;;;;4833659;29;20058;-69
2021/01/21 01:18:06;;;;;;;10.07;5.25;;;8.80;96.70;;;;;;4834730;29;20048;-69
2021/01/21 01:20:35;;;;;;;7.75;5.25;;;8.90;96.70;;;;;;4833366;29;20045;-68
2021/01/21 01:23:02;;;;;;;8.48;4.85;;;8.90;96.70;;;;;;4832962;29;20049;-69
2021/01/21 01:25:35;;;;;;;10.00;5.57;;;8.90;96.70;;;;;;4830576;29;20528;-69
2021/01/21 01:28:02;;;;;;;8.52;4.97;;;8.90;96.70;;;;;;4831149;29;20049;-69
2021/01/21 01:30:30;;;;;;;9.18;5.10;;;8.90;96.70;;;;;;4833143;29;20065;-69
2021/01/21 01:32:57;;;;;;;8.98;5.00;;;8.90;96.70;;;;;;4832330;29;20105;-70
2021/01/21 01:35:26;;;;;;;8.45;5.00;;;8.90;96.70;;;;;;4836023;29;20048;-69
2021/01/21 01:37:54;;;;;;;10.52;6.13;;;8.90;96.70;;;;;;4831880;29;20425;-69
2021/01/21 01:40:22;;;;;;;9.07;4.80;;;8.90;96.70;;;;;;4831208;29;20046;-69
2021/01/21 01:42:53;;;;;;;8.23;5.03;;;8.80;96.70;;;;;;4831298;29;20041;-69
2021/01/21 01:45:22;;;;;;;7.53;4.75;;;8.80;96.70;;;;;;4835794;29;20149;-69
2021/01/21 01:47:52;;;;;;;7.07;4.78;;;8.80;96.70;;;;;;4831785;29;20046;-70
2021/01/21 01:50:30;;;;;;;9.38;4.88;;;8.80;96.70;;;;;;4832300;29;20096;-69
2021/01/21 01:52:58;;;;;;;8.23;5.65;;;8.70;96.70;;;;;;4831423;29;20042;-69
2021/01/21 01:55:25;;;;;;;9.35;4.70;;;8.70;96.70;;;;;;4827260;29;20410;-69
2021/01/21 01:58:02;;;;;;;8.80;5.35;;;8.70;96.70;;;;;;4834744;29;20131;-69
2021/01/21 02:00:41;;;;;;;7.65;5.25;;;8.70;96.70;;;;;;4834722;29;20580;-69
2021/01/21 02:03:08;;;;;;;9.15;5.03;;;8.60;96.70;;;;;;4829897;29;20118;-69
2021/01/21 02:05:45;;;;;;;6.53;5.10;;;8.60;96.70;;;;;;4832650;29;20076;-69
2021/01/21 02:08:13;;;;;;;11.48;5.35;;;8.60;96.70;;;;;;4833068;29;20527;-69
2021/01/21 02:10:41;;;;;;;11.40;5.63;;;8.60;96.70;;;;;;4830594;29;20050;-69
2021/01/21 02:13:30;;;;;;;8.75;5.07;;;8.60;96.70;;;;;;4835667;29;20104;-69
2021/01/21 02:16:16;;;;;;;8.48;5.03;;;8.60;96.70;;;;;;4834941;29;20054;-69
2021/01/21 02:18:56;;;;;;;8.88;5.07;;;8.60;96.70;;;;;;4834258;29;20052;-69
2021/01/21 02:21:50;;;;;;;7.93;4.97;;;8.60;96.70;;;;;;4829465;29;20054;-69
2021/01/21 02:24:55;;;;;;;7.22;4.90;;;8.60;96.70;;;;;;4836005;29;20077;-69
2021/01/21 02:27:32;;;;;;;6.75;4.47;;;8.60;96.70;;;;;;4844352;29;20045;-69
2021/01/21 02:30:12;;;;;;;8.75;5.47;;;8.60;96.70;;;;;;4844314;29;20045;-70
2021/01/21 02:32:54;;;;;;;7.65;4.50;;;8.60;96.70;;;;;;4833151;29;20539;-69
2021/01/21 02:35:27;;;;;;;9.13;5.00;;;8.60;96.70;;;;;;4846947;29;20512;-69
2021/01/21 02:37:56;;;;;;;8.25;5.22;;;8.60;96.70;;;;;;4831935;29;20086;-69
2021/01/21 02:40:28;;;;;;;9.88;5.30;;;8.60;96.70;;;;;;4813263;29;20057;-69
2021/01/21 02:43:09;;;;;;;11.73;5.13;;;8.60;96.70;;;;;;4835177;29;20056;-68
2021/01/21 02:45:38;;;;;;;7.25;4.40;;;8.50;96.70;;;;;;4826761;29;20048;-69
2021/01/21 02:48:07;;;;;;;9.27;4.68;;;8.50;96.70;;;;;;4835830;29;20038;-69
2021/01/21 02:51:08;;;;;;;10.25;4.43;;;8.50;96.70;;;;;;4831534;29;20045;-70
2021/01/21 02:53:38;;;;;;;7.80;4.90;;;8.50;96.70;;;;;;4831745;29;20056;-68
2021/01/21 02:56:09;;;;;;;10.70;5.47;;;8.50;96.70;;;;;;4829252;29;20825;-69
2021/01/21 02:58:55;;;;;;;8.77;5.15;;;8.60;96.70;;;;;;4832281;29;20053;-69
2021/01/21 03:01:23;;;;;;;9.07;4.82;;;8.50;96.70;;;;;;4829694;29;20075;-69
2021/01/21 03:03:58;;;;;;;9.13;4.75;;;8.50;96.70;;;;;;4830813;29;20043;-69
2021/01/21 03:06:28;;;;;;;9.43;5.10;;;8.50;96.70;;;;;;4831169;29;20098;-69
2021/01/21 03:08:58;;;;;;;6.72;4.13;;;8.50;96.70;;;;;;4815231;29;20157;-68
2021/01/21 03:11:26;;;;;;;10.85;5.30;;;8.50;96.70;;;;;;4834220;29;20441;-68
2021/01/21 03:13:58;;;;;;;8.43;4.95;;;8.50;96.70;;;;;;4828641;29;20612;-69
2021/01/21 03:16:29;;;;;;;6.28;4.20;;;8.50;96.70;;;;;;4834669;29;20050;-69
2021/01/21 03:18:57;;;;;;;7.13;4.85;;;8.50;96.70;;;;;;4833926;29;20042;-68
2021/01/21 03:21:25;;;;;;;8.55;5.18;;;8.50;96.70;;;;;;4833156;29;20045;-69
2021/01/21 03:23:58;;;;;;;7.38;4.93;;;8.50;96.70;;;;;;4829367;29;20045;-69
2021/01/21 03:26:35;;;;;;;10.38;4.93;;;8.40;96.70;;;;;;4831038;29;20523;-68
2021/01/21 03:29:12;;;;;;;10.88;5.20;;;8.40;96.70;;;;;;4830318;29;20061;-69
2021/01/21 03:31:39;;;;;;;9.98;5.50;;;8.40;96.70;;;;;;4833127;29;20046;-69
2021/01/21 03:34:07;;;;;;;12.27;5.93;;;8.40;96.70;;;;;;4830318;29;20136;-69
2021/01/21 03:36:41;;;;;;;7.22;4.88;;;8.30;96.70;;;;;;4836053;29;20625;-68
2021/01/21 03:39:09;;;;;;;9.13;5.13;;;8.30;96.70;;;;;;4832051;29;20081;-69
2021/01/21 03:41:38;;;;;;;9.68;5.55;;;8.30;96.70;;;;;;4829568;29;20447;-69
2021/01/21 03:44:14;;;;;;;10.93;4.95;;;8.30;96.70;;;;;;4831277;29;20045;-69
2021/01/21 03:46:46;;;;;;;9.50;5.28;;;8.30;96.70;;;;;;4831359;29;20600;-69
2021/01/21 03:49:22;;;;;;;8.02;5.13;;;8.30;96.70;;;;;;4811848;29;20470;-69
2021/01/21 03:51:56;;;;;;;9.20;5.50;;;8.40;96.70;;;;;;4832319;29;20132;-69
2021/01/21 03:54:38;;;;;;;10.80;5.40;;;8.40;96.70;;;;;;4829794;29;20049;-69
2021/01/21 03:57:14;;;;;;;8.05;4.82;;;8.40;96.70;;;;;;4830063;29;20049;-68
2021/01/21 03:59:42;;;;;;;8.25;4.95;;;8.40;96.70;;;;;;4830644;29;20065;-69
2021/01/21 04:02:10;;;;;;;8.65;4.88;;;8.50;96.70;;;;;;4816969;29;20062;-69
2021/01/21 04:04:46;;;;;;;6.38;4.68;;;8.50;96.70;;;;;;4832016;29;20046;-69
2021/01/21 04:07:17;;;;;;;10.32;4.97;;;8.50;96.70;;;;;;4829317;29;20092;-69
2021/01/21 04:09:45;;;;;;;8.05;5.32;;;8.50;96.70;;;;;;4830489;29;20462;-69
2021/01/21 04:12:29;;;;;;;6.40;4.65;;;8.50;96.70;;;;;;4818334;29;20061;-69
2021/01/21 04:14:58;;;;;;;8.73;5.25;;;8.50;96.70;;;;;;4836079;29;20061;-69
2021/01/21 04:17:29;;;;;;;12.38;4.90;;;8.60;96.70;;;;;;4811914;29;20722;-69
2021/01/21 04:19:56;;;;;;;10.02;5.50;;;8.60;96.70;;;;;;4845791;29;20049;-69
2021/01/21 04:22:24;;;;;;;6.05;4.68;;;8.60;96.70;;;;;;4829288;29;20434;-68
2021/01/21 04:24:52;;;;;;;9.77;5.63;;;8.60;96.70;;;;;;4831759;29;20038;-69
2021/01/21 04:27:31;;;;;;;7.35;5.32;;;8.60;96.70;;;;;;4827105;29;20042;-69
2021/01/21 04:30:11;;;;;;;8.80;4.82;;;8.60;96.70;;;;;;4836609;29;20079;-69
2021/01/21 04:32:38;;;;;;;12.20;6.03;;;8.60;96.70;;;;;;4830332;29;20121;-69
2021/01/21 04:35:10;;;;;;;7.47;4.95;;;8.60;96.70;;;;;;4824451;29;20108;-69
2021/01/21 04:37:40;;;;;;;9.00;5.25;;;8.60;96.70;;;;;;4830697;29;20045;-69
2021/01/21 04:40:16;;;;;;;8.00;5.13;;;8.60;96.70;;;;;;4830213;29;20046;-69
2021/01/21 04:42:48;;;;;;;6.53;4.53;;;8.60;96.70;;;;;;4829858;29;20053;-69
2021/01/21 04:45:16;;;;;;;9.38;5.85;;;8.60;96.70;;;;;;4812498;29;20082;-69
2021/01/21 04:47:48;;;;;;;8.30;5.10;;;8.60;96.70;;;;;;4832755;29;20137;-69
2021/01/21 04:50:28;;;;;;;7.18;4.85;;;8.50;96.70;;;;;;4830998;29;20156;-69
2021/01/21 04:53:07;;;;;;;7.72;4.45;;;8.50;96.70;;;;;;4830696;29;20046;-68
2021/01/21 04:55:53;;;;;;;8.80;5.03;;;8.50;96.70;;;;;;4822259;29;20477;-68
2021/01/21 04:58:48;;;;;;;7.88;4.78;;;8.60;96.70;;;;;;4828207;29;20604;-69
2021/01/21 05:01:31;;;;;;;9.55;5.03;;;8.50;96.70;;;;;;4827313;29;21057;-69
2021/01/21 05:04:01;;;;;;;6.28;4.50;;;8.60;96.70;;;;;;4834227;29;20141;-68
2021/01/21 05:06:45;;;;;;;10.25;5.00;;;8.50;96.70;;;;;;4832535;29;20132;-70
2021/01/21 05:09:16;;;;;;;8.80;4.95;;;8.50;96.70;;;;;;4834259;29;20050;-70
2021/01/21 05:11:46;;;;;;;9.65;4.80;;;8.60;96.70;;;;;;4842705;29;20486;-70
2021/01/21 05:14:23;;;;;;;9.15;5.07;;;8.50;96.70;;;;;;4828390;29;20054;-69
2021/01/21 05:17:10;;;;;;;;;;;8.50;96.70;;;;;;4827262;29;20054;-69
2021/01/21 05:19:57;;;;;;;8.07;4.68;;;8.50;96.70;;;;;;4827922;29;20455;-70
2021/01/21 05:22:35;;;;;;;8.90;5.10;;;8.50;96.70;;;;;;4833629;29;20049;-69
2021/01/21 05:25:12;;;;;;;9.38;4.60;;;8.50;96.70;;;;;;4832710;29;20461;-69
2021/01/21 05:27:49;;;;;;;8.88;5.05;;;8.50;96.70;;;;;;4829065;29;20387;-69
2021/01/21 05:30:36;;;;;;;7.72;4.50;;;8.50;96.70;;;;;;4811156;29;20488;-68
2021/01/21 05:33:03;;;;;;;9.15;4.97;;;8.50;96.70;;;;;;4833108;29;20545;-69
2021/01/21 05:35:42;;;;;;;8.50;4.75;;;8.50;96.70;;;;;;4832080;29;20442;-69
2021/01/21 05:38:11;;;;;;;9.30;4.80;;;8.50;96.70;;;;;;4829149;29;20057;-68
2021/01/21 05:40:48;;;;;;;11.85;4.50;;;8.60;96.70;;;;;;4835266;29;20500;-70
2021/01/21 05:43:27;;;;;;;9.07;4.20;;;8.50;96.70;;;;;;4830061;29;20102;-70
2021/01/21 05:46:06;;;;;;;8.80;5.60;;;8.50;96.70;;;;;;4844091;29;20054;-68
2021/01/21 05:48:33;;;;;;;6.68;4.45;;;8.50;96.70;;;;;;4830147;29;20131;-68
2021/01/21 05:51:02;;;;;;;7.05;4.15;;;8.50;96.70;;;;;;4835605;29;20117;-68
2021/01/21 05:53:30;;;;;;;9.60;4.45;;;8.50;96.70;;;;;;4828897;29;20037;-69
2021/01/21 05:56:01;;;;;;;8.73;4.70;;;8.50;96.70;;;;;;4834291;29;20618;-68
2021/01/21 05:58:50;;;;;;;;;;;8.50;96.70;;;;;;4821926;29;20175;-68
2021/01/21 06:01:20;;;;;;;7.85;4.35;;;8.50;96.70;;;;;;4846164;29;20116;-68
2021/01/21 06:03:52;;;;;;;5.60;4.38;;;8.50;96.70;;;;;;4831237;29;20113;-70
2021/01/21 06:06:26;;;;;;;9.65;4.40;;;8.50;96.70;;;;;;4831953;29;20126;-68
2021/01/21 06:08:56;;;;;;;7.00;3.92;;;8.50;96.70;;;;;;4835396;29;20053;-68
2021/01/21 06:11:24;;;;;;;9.45;4.55;;;8.50;96.70;;;;;;4831171;29;20552;-69
2021/01/21 06:13:53;;;;;;;7.47;4.72;;;8.60;96.70;;;;;;4832418;29;20126;-69
2021/01/21 06:16:23;;;;;;;7.80;3.95;;;8.60;96.70;;;;;;4832692;29;20505;-69
2021/01/21 06:18:51;;;;;;;9.18;4.20;;;8.60;96.70;;;;;;4834077;29;20042;-69
2021/01/21 06:21:32;;;;;;;7.20;4.05;;;8.60;96.70;;;;;;4833263;29;20450;-69
2021/01/21 06:24:05;;;;;;;10.85;4.72;;;8.60;96.70;;;;;;4836861;29;21604;-69
2021/01/21 06:26:45;;;;;;;8.23;3.35;;;8.60;96.70;;;;;;4832133;29;20387;-69
2021/01/21 06:29:16;;;;;;;10.93;4.03;;;8.60;96.70;;;;;;4837501;29;20136;-69
2021/01/21 06:31:44;;;;;;;7.88;4.03;;;8.60;96.70;;;;;;4829527;29;20050;-70
2021/01/21 06:34:17;;;;;;;9.40;3.92;;;8.60;96.70;;;;;;4833807;29;20034;-69
2021/01/21 06:36:50;;;;;;;12.20;4.43;;;8.50;96.70;;;;;;4831246;29;20505;-69
2021/01/21 06:39:25;;;;;;;9.75;4.13;;;8.50;96.70;;;;;;4831650;29;20042;-69
2021/01/21 06:41:57;;;;;;;12.43;4.40;;;8.60;96.70;;;;;;4843020;29;20477;-70
2021/01/21 06:44:27;;;;;;;10.00;4.78;;;8.60;96.70;;;;;;4836569;29;20161;-70
2021/01/21 06:46:55;;;;;;;10.57;4.90;;;8.50;96.70;;;;;;4831399;29;20046;-69
2021/01/21 06:49:23;;;;;;;11.75;5.05;;;8.60;96.70;;;;;;4832899;29;20493;-69
2021/01/21 06:51:51;;;;;;;10.55;4.40;;;8.60;96.70;;;;;;4832304;29;20110;-68
2021/01/21 06:54:20;;;;;;;12.52;4.82;;;8.60;96.70;;;;;;4833996;29;20397;-69
2021/01/21 06:56:48;;;;;;;12.98;5.50;;;8.60;96.70;;;;;;4830565;29;20057;-69
2021/01/21 06:59:15;;;;;;;7.20;4.18;;;8.60;96.70;;;;;;4833535;29;20042;-69
2021/01/21 07:01:45;;;;;;;10.57;4.22;;;8.60;96.70;;;;;;4830693;29;20457;-69
2021/01/21 07:04:21;;;;;;;9.82;4.05;;;8.60;96.70;;;;;;4815608;29;20046;-70
2021/01/21 07:07:03;;;;;;;10.43;4.25;;;8.70;96.70;;;;;;4827759;29;20057;-70
2021/01/21 07:09:33;;;;;;;6.63;3.45;;;8.70;96.70;;;;;;4831794;29;20049;-70
2021/01/21 07:12:01;;;;;;;8.73;3.83;;;8.80;96.70;;;;;;4833196;29;20038;-69
2021/01/21 07:14:31;;;;;;;7.90;3.58;;;8.80;96.70;;;;;;4833697;29;20133;-69
2021/01/21 07:17:01;;;;;;;8.15;3.85;;;8.80;96.70;;;;;;4830681;29;20045;-70
2021/01/21 07:19:33;;;;;;;9.57;3.92;;;8.80;96.70;;;;;;4844418;29;20053;-70
2021/01/21 07:22:12;;;;;;;10.40;3.78;;;8.90;96.70;;;;;;4829288;29;20060;-69
2021/01/21 07:24:49;;;;;;;8.82;3.42;;;8.90;96.70;;;;;;4828037;29;20077;-70
2021/01/21 07:27:19;;;;;;;6.60;3.58;;;8.90;96.70;;;;;;4828681;29;20042;-69
2021/01/21 07:29:46;;;;;;;8.35;3.70;;;8.90;96.70;;;;;;4830206;29;20053;-69
2021/01/21 07:32:14;;;;;;;6.82;3.17;;;8.90;96.70;;;;;;4830080;29;20056;-69
2021/01/21 07:34:46;;;;;;;5.75;3.42;;;8.90;96.70;;;;;;4827813;29;20080;-70
2021/01/21 07:37:19;;;;;;;6.57;3.30;;;9.00;96.70;;;;;;4829093;29;20125;-69
2021/01/21 07:39:48;;;;;;;7.35;3.53;;;9.00;96.70;;;;;;4811785;29;20597;-69
2021/01/21 07:42:15;;;;;;;9.48;3.67;;;9.00;96.70;;;;;;4834570;29;20045;-70
2021/01/21 07:44:58;;;;;;;7.57;3.75;;;9.00;96.70;;;;;;4831546;29;20621;-70
2021/01/21 07:47:31;;;;;;;7.13;3.55;;;9.00;96.70;;;;;;4831518;29;20053;-70
2021/01/21 07:50:30;;;;;;;7.80;3.70;;;9.00;96.70;;;;;;4829140;29;20053;-70
2021/01/21 07:52:59;;;;;;;8.52;3.10;;;9.10;96.70;;;;;;4826320;29;20060;-70
2021/01/21 07:55:28;;;;;;;9.70;3.70;;;9.10;96.70;;;;;;4829591;29;20042;-70
2021/01/21 07:58:14;;;;;;;7.25;2.85;;;9.20;96.70;;;;;;4831057;29;20056;-69
2021/01/21 08:00:43;;;;;;;9.25;3.28;;;9.30;96.70;;;;;;4847726;29;20053;-69
2021/01/21 08:03:11;;;;;;;8.85;3.00;;;9.30;96.70;;;;;;4830676;29;20042;-70
2021/01/21 08:05:39;;;;;;;8.93;3.47;;;9.40;96.70;;;;;;4831483;29;20793;-70
2021/01/21 08:08:06;;;;;;;6.45;3.28;;;9.40;96.70;;;;;;4828820;29;20060;-70
2021/01/21 08:10:36;;;;;;;6.75;3.00;;;9.50;96.70;;;;;;4826666;29;20054;-70
2021/01/21 08:13:05;;;;;;;8.65;2.95;;;9.50;96.70;;;;;;4828370;29;20041;-70
2021/01/21 08:15:34;;;;;;;8.50;3.20;;;9.60;96.70;;;;;;4846558;29;20056;-70
2021/01/21 08:18:01;;;;;;;10.15;3.03;;;9.70;96.70;;;;;;4826789;29;20110;-70
2021/01/21 08:20:33;;;;;;;10.40;4.15;;;9.70;96.70;;;;;;4828250;29;20058;-70
2021/01/21 08:23:04;;;;;;;8.40;3.13;;;9.70;96.70;;;;;;4829916;29;20061;-70
2021/01/21 08:25:38;;;;;;;9.45;3.60;;;9.80;96.70;;;;;;4815375;29;20133;-70
2021/01/21 08:28:06;;;;;;;10.15;3.03;;;9.80;96.70;;;;;;4839371;29;20103;-70
2021/01/21 08:30:33;;;;;;;10.23;3.40;;;9.80;96.70;;;;;;4828659;29;20046;-69
2021/01/21 08:33:07;;;;;;;9.63;2.92;;;9.90;96.70;;;;;;4831398;29;20050;-70
2021/01/21 08:35:42;;;;;;;9.30;3.00;;;9.90;96.70;;;;;;4831011;29;20153;-69
2021/01/21 08:38:22;;;;;;;10.32;3.03;;;9.90;96.70;;;;;;4831022;29;20061;-70
2021/01/21 08:40:51;;;;;;;9.32;2.90;;;9.90;96.70;;;;;;4831148;29;20038;-69
2021/01/21 08:43:19;;;;;;;10.73;3.78;;;10.00;96.70;;;;;;4831035;29;20046;-69
2021/01/21 08:45:48;;;;;;;9.68;3.00;;;10.00;96.70;;;;;;4827350;29;20064;-69
2021/01/21 08:48:31;;;;;;;9.18;3.17;;;10.00;96.70;;;;;;4826532;29;20038;-70
2021/01/21 08:50:59;;;;;;;11.85;3.60;;;10.00;96.70;;;;;;4830067;29;20494;-69
2021/01/21 08:53:29;;;;;;;10.02;3.47;;;10.00;96.70;;;;;;4830489;29;20519;-69
2021/01/21 08:55:57;;;;;;;8.07;3.13;;;9.90;96.70;;;;;;4827969;29;20102;-69
2021/01/21 08:58:28;;;;;;;11.57;3.33;;;9.90;96.70;;;;;;4827650;29;20106;-69
2021/01/21 09:01:01;;;;;;;8.65;3.00;;;9.90;96.70;;;;;;4814163;29;20588;-69
2021/01/21 09:03:35;;;;;;;11.32;3.30;;;10.00;96.70;;;;;;4824959;29;20469;-70
2021/01/21 09:06:04;;;;;;;8.32;3.50;;;10.00;96.70;;;;;;4829119;29;20049;-70
2021/01/21 09:08:33;;;;;;;10.27;3.60;;;10.00;96.70;;;;;;4827423;29;20049;-69
2021/01/21 09:11:00;;;;;;;14.13;4.32;;;10.00;96.70;;;;;;4834550;29;20572;-69
2021/01/21 09:13:28;;;;;;;8.20;3.40;;;10.00;96.70;;;;;;4829069;29;20127;-69
2021/01/21 09:15:57;;;;;;;10.18;3.90;;;10.10;96.70;;;;;;4832600;29;20428;-69
2021/01/21 09:18:26;;;;;;;9.00;3.55;;;10.10;96.70;;;;;;4835087;29;20037;-70
2021/01/21 09:21:12;;;;;;;11.38;3.17;;;10.20;96.70;;;;;;4833070;29;20053;-69
2021/01/21 09:23:40;;;;;;;9.20;4.18;;;10.20;96.70;;;;;;4834415;29;20122;-70
2021/01/21 09:26:12;;;;;;;7.05;4.35;;;10.30;96.70;;;;;;4814905;29;20049;-69
2021/01/21 09:28:51;;;;;;;11.05;4.70;;;10.30;96.70;;;;;;4819000;29;20530;-69
2021/01/21 09:31:21;;;;;;;9.98;4.45;;;10.30;96.70;;;;;;4829449;29;20052;-70
2021/01/21 09:33:50;;;;;;;8.10;4.10;;;10.30;96.70;;;;;;4832791;29;20056;-70
2021/01/21 09:36:19;;;;;;;14.40;5.13;;;10.40;96.70;;;;;;4835989;29;20452;-70
2021/01/21 09:38:46;;;;;;;8.88;4.20;;;10.40;96.70;;;;;;4832455;29;20054;-69
2021/01/21 09:41:14;;;;;;;10.75;4.78;;;10.50;96.70;;;;;;4843842;29;20183;-70
2021/01/21 09:43:41;;;;;;;11.52;4.97;;;10.50;96.70;;;;;;4833423;29;20038;-71
2021/01/21 09:46:21;;;;;;;12.77;4.30;;;10.50;96.70;;;;;;4833118;29;20066;-70
2021/01/21 09:48:48;;;;;;;16.55;4.88;;;10.50;96.70;;;;;;4835035;29;20102;-70
2021/01/21 09:51:15;;;;;;;11.10;4.80;;;10.50;96.70;;;;;;4829921;29;20542;-70
2021/01/21 09:53:44;;;;;;;13.48;5.35;;;10.50;96.70;;;;;;4845013;29;20447;-69
2021/01/21 09:56:11;;;;;;;11.70;5.63;;;10.50;96.70;;;;;;4834610;29;20038;-70
2021/01/21 09:58:38;;;;;;;13.80;5.68;;;10.60;96.70;;;;;;4826390;29;20038;-70
2021/01/21 10:01:06;;;;;;;11.63;5.53;;;10.60;96.70;;;;;;4834917;29;20042;-70
2021/01/21 10:03:48;;;;;;;14.02;5.95;;;10.60;96.70;;;;;;4833788;29;20052;-69
2021/01/21 10:06:16;;;;;;;14.43;6.43;;;10.70;96.70;;;;;;4828372;29;20061;-70
2021/01/21 10:08:44;;;;;;;12.43;5.38;;;10.70;96.70;;;;;;4833049;29;20133;-69
2021/01/21 10:11:12;;;;;;;14.80;5.38;;;10.80;96.70;;;;;;4813901;29;20046;-72
2021/01/21 10:13:39;;;;;;;12.23;5.00;;;10.90;96.70;;;;;;4835013;29;20641;-72
2021/01/21 10:16:07;;;;;;;12.75;5.55;;;11.00;96.70;;;;;;4811862;29;20080;-72
2021/01/21 10:18:35;;;;;;;11.32;5.38;;;11.10;96.70;;;;;;4832275;29;20056;-72
2021/01/21 10:21:02;;;;;;;12.20;5.68;;;11.10;96.70;;;;;;4830718;29;20049;-72
2021/01/21 10:23:29;;;;;;;10.75;5.32;;;11.20;96.70;;;;;;4835680;29;20044;-72
2021/01/21 10:25:57;;;;;;;12.82;5.40;;;11.30;96.70;;;;;;4830204;29;20696;-72
2021/01/21 10:28:26;;;;;;;11.40;5.93;;;11.30;96.70;;;;;;4832028;29;20145;-72
2021/01/21 10:30:53;;;;;;;11.07;4.63;;;11.40;96.70;;;;;;4835743;29;20138;-72
2021/01/21 10:33:21;;;;;;;12.05;5.20;;;11.40;96.70;;;;;;4829404;29;20046;-72
2021/01/21 10:35:48;;;;;;;16.98;5.30;;;11.50;96.70;;;;;;4828868;29;20042;-72
2021/01/21 10:38:15;;;;;;;14.15;5.97;;;11.60;96.70;;;;;;4830727;29;20132;-72
2021/01/21 10:40:43;;;;;;;12.02;4.75;;;11.80;96.70;;;;;;4834888;29;20105;-72
2021/01/21 10:43:11;;;;;;;14.73;4.90;;;12.00;96.70;;;;;;4829566;29;20597;-72
2021/01/21 10:45:38;;;;;;;16.80;5.20;;;12.20;96.70;;;;;;4836341;29;20046;-72
2021/01/21 10:48:07;;;;;;;14.38;4.25;;;12.40;96.70;;;;;;4832689;29;20037;-72
2021/01/21 10:50:34;;;;;;;12.07;3.63;;;12.50;96.70;;;;;;4830656;29;20074;-72
2021/01/21 10:53:02;;;;;;;8.80;3.97;;;12.60;96.70;;;;;;4830563;29;20157;-72
2021/01/21 10:55:29;;;;;;;9.98;3.63;;;12.70;96.70;;;;;;4831525;29;20601;-72
2021/01/21 10:57:56;;;;;;;17.63;4.20;;;12.70;96.70;;;;;;4829394;29;20054;-73
2021/01/21 11:00:25;;;;;;;11.52;3.58;;;12.80;96.70;;;;;;4829104;29;20642;-72
2021/01/21 11:02:52;;;;;;;11.23;4.57;;;12.90;96.70;;;;;;4831199;29;20042;-72
2021/01/21 11:05:19;;;;;;;11.55;3.53;;;12.90;96.70;;;;;;4831018;29;20116;-72
2021/01/21 11:07:47;;;;;;;7.95;3.63;;;13.00;96.70;;;;;;4831634;29;20054;-72
2021/01/21 11:10:17;;;;;;;11.82;3.80;;;13.10;96.70;;;;;;4833722;29;20450;-72
2021/01/21 11:12:48;;;;;;;10.43;4.10;;;13.20;96.70;;;;;;4835063;29;20050;-72
2021/01/21 11:15:16;;;;;;;8.77;4.28;;;13.30;96.70;;;;;;4835768;29;20050;-72
2021/01/21 11:17:45;;;;;;;10.48;4.43;;;13.40;96.70;;;;;;4848265;29;20050;-72
2021/01/21 11:20:14;;;;;;;15.88;4.60;;;13.50;96.70;;;;;;4828512;29;20041;-73
2021/01/21 11:22:41;;;;;;;12.68;4.50;;;13.50;96.70;;;;;;4829047;29;20056;-72
2021/01/21 11:25:10;;;;;;;9.77;3.70;;;13.60;96.70;;;;;;4825859;29;20053;-73
2021/01/21 11:27:58;;;;;;;8.30;4.20;;;13.60;96.70;;;;;;4843927;29;20515;-73
2021/01/21 11:30:25;;;;;;;11.90;3.85;;;13.70;96.70;;;;;;4827840;29;20042;-72
2021/01/21 11:32:54;;;;;;;11.85;3.47;;;13.70;96.70;;;;;;4834529;29;20105;-73
2021/01/21 11:35:21;;;;;;;12.95;3.75;;;13.60;96.70;;;;;;4827599;29;20152;-73
2021/01/21 11:37:49;;;;;;;10.85;3.42;;;13.60;96.70;;;;;;4830017;29;20049;-73
2021/01/21 11:40:16;;;;;;;9.10;3.25;;;13.50;96.70;;;;;;4845485;29;20525;-73
2021/01/21 11:42:44;;;;;;;10.38;3.78;;;13.50;96.70;;;;;;4828955;29;20540;-73
2021/01/21 11:45:12;;;;;;;8.52;3.75;;;13.50;96.70;;;;;;4812916;29;20070;-73
2021/01/21 11:47:40;;;;;;;13.38;3.65;;;13.50;96.70;;;;;;4830489;29;20050;-73
2021/01/21 11:50:15;;;;;;;10.60;3.63;;;13.60;96.70;;;;;;4809900;29;20424;-73
2021/01/21 11:52:43;;;;;;;9.40;3.45;;;13.60;96.70;;;;;;4833224;29;20529;-76
2021/01/21 11:55:12;;;;;;;10.10;3.75;;;13.60;96.70;;;;;;4831684;29;20125;-72
2021/01/21 11:57:42;;;;;;;8.27;3.30;;;13.60;96.70;;;;;;4809483;29;20055;-73
2021/01/21 12:00:12;;;;;;;6.78;3.63;;;13.80;96.70;;;;;;4829950;29;20630;-74
2021/01/21 12:02:41;;;;;;;11.25;3.85;;;13.90;96.70;;;;;;4829043;29;20093;-72
2021/01/21 12:05:10;;;;;;;12.52;4.80;;;14.00;96.70;;;;;;4829352;29;20051;-72
2021/01/21 12:07:39;;;;;;;15.30;3.85;;;13.90;96.70;;;;;;4833951;29;20106;-72
2021/01/21 12:10:07;;;;;;;10.05;3.85;;;13.80;96.70;;;;;;4829304;29;20046;-73
2021/01/21 12:12:35;;;;;;;10.07;3.75;;;13.80;96.70;;;;;;4832238;29;20520;-72
2021/01/21 12:15:03;;;;;;;15.80;6.22;;;13.70;96.70;;;;;;4841593;29;20947;-74
2021/01/21 12:17:31;;;;;;;19.65;9.45;;;13.60;96.70;;;;;;4828458;29;20046;-73
2021/01/21 12:19:58;;;;;;;15.05;5.75;;;13.60;96.70;;;;;;4827454;29;20046;-73
2021/01/21 12:22:27;;;;;;;18.45;6.03;;;13.60;96.70;;;;;;4828015;29;20077;-73
2021/01/21 12:24:55;;;;;;;24.27;11.75;;;13.50;96.70;;;;;;4827649;29;20038;-73
2021/01/21 12:27:23;;;;;;;18.05;10.45;;;13.50;96.70;;;;;;4829050;29;20080;-74
2021/01/21 12:29:51;;;;;;;16.40;7.25;;;13.50;96.70;;;;;;4827791;29;20061;-73
2021/01/21 12:32:18;;;;;;;10.57;5.15;;;13.50;96.70;;;;;;4826046;29;20199;-73
2021/01/21 12:34:47;;;;;;;16.55;4.65;;;13.50;96.70;;;;;;4831103;29;20497;-73
2021/01/21 12:37:14;;;;;;;9.90;4.72;;;13.60;96.70;;;;;;4834376;29;20046;-73
2021/01/21 12:39:42;;;;;;;15.07;5.03;;;13.60;96.70;;;;;;4818383;29;20065;-73
2021/01/21 12:42:11;;;;;;;11.43;5.07;;;13.60;96.70;;;;;;4814558;29;20121;-75
2021/01/21 12:44:38;;;;;;;17.67;5.53;;;13.50;96.70;;;;;;4831291;29;20042;-75
2021/01/21 12:47:07;;;;;;;13.52;5.50;;;13.50;96.70;;;;;;4832123;29;20077;-72
2021/01/21 12:49:37;;;;;;;14.60;4.50;;;13.60;96.70;;;;;;4827988;29;20240;-74
2021/01/21 12:52:05;;;;;;;9.93;4.38;;;13.60;96.70;;;;;;4832856;29;20560;-73
2021/01/21 12:54:33;;;;;;;13.02;5.22;;;13.70;96.70;;;;;;4838995;29;20050;-74
2021/01/21 12:57:00;;;;;;;15.63;9.40;;;13.80;96.70;;;;;;4831311;29;20046;-73
2021/01/21 12:59:30;;;;;;;14.52;6.93;;;14.00;96.70;;;;;;4833666;29;20037;-73
2021/01/21 13:01:57;;;;;;;12.50;5.50;;;14.20;96.70;;;;;;4831715;29;20058;-73
2021/01/21 13:04:25;;;;;;;14.00;5.70;;;14.10;96.70;;;;;;4833803;29;20033;-72
2021/01/21 13:06:52;;;;;;;13.35;5.93;;;14.10;96.70;;;;;;4833259;29;20079;-72
2021/01/21 13:09:21;;;;;;;14.52;5.00;;;14.20;96.70;;;;;;4847120;29;20042;-73
2021/01/21 13:11:52;;;;;;;13.00;4.50;;;14.20;96.70;;;;;;4836976;29;20037;-72